KSCK/SCK METAR and TAF weather

Enter ICAO airport designator
Station Type Date Time Source
KSCK METAR 2021/10/20 05:55 UTC NOAA

KSCK 200555Z AUTO 16008KT 10SM CLR 16/04 A2996 RMK AO2 SLP145 T01560044 10194 20133 53006


Station Type Date Time Source
KSCK Decoded METAR 2021/10/20 05:55 UTC NOAA

STOCKTON METROPOLITAN AIRPORT , CA, United States (KSCK) 37-54N 121-14W 10M
Oct 20, 2021 - 01:55 AM EDT / 2021.10.20 0555 UTC
Wind: from the SSE (160 degrees) at 9 MPH (8 KT):0
Visibility: 10 mile(s):0
Sky conditions: clear
Temperature: 60.1 F (15.6 C)
Dew Point: 39.9 F (4.4 C)
Relative Humidity: 47%
Pressure (altimeter): 29.96 in. Hg (1014 hPa)
Pressure tendency: 0.02 inches (0.6 hPa) higher than three hours ago
ob: KSCK 200555Z AUTO 16008KT 10SM CLR 16/04 A2996 RMK AO2 SLP145 T01560044 10194 20133 53006
cycle: 6

Station Type Date Time Source
KSCK TAF 2021/10/20 06:34 UTC NOAA

TAF KSCK 200532Z 2006/2106 15008KT P6SM OVC200
FM200900 13011KT P6SM -RA OVC050
FM201800 15005KT P6SM OVC050
FM210300 09003KT P6SM -SHRA OVC050

Example: see airport list